createdAt,value
2022-11-12T00:02:20.857Z,4.48
2022-11-12T00:04:52.176Z,4.47
2022-11-12T00:07:23.411Z,4.44
2022-11-12T00:09:54.661Z,4.42
2022-11-12T00:12:25.894Z,4.39
2022-11-12T00:14:57.092Z,4.36
2022-11-12T00:17:28.370Z,4.33
2022-11-12T00:19:59.750Z,4.29
2022-11-12T00:22:30.960Z,4.28
2022-11-12T00:25:02.469Z,4.25
2022-11-12T00:27:34.051Z,4.23
2022-11-12T00:30:05.801Z,4.21
2022-11-12T00:32:37.599Z,4.19
2022-11-12T00:35:13.373Z,4.18
2022-11-12T00:37:45.306Z,4.13
2022-11-12T00:40:16.516Z,4.12
2022-11-12T00:42:47.761Z,4.12
2022-11-12T00:45:19.798Z,4.12
2022-11-12T00:47:54.252Z,4.10
2022-11-12T00:50:25.609Z,4.10
2022-11-12T00:52:56.887Z,4.07
2022-11-12T00:55:28.100Z,4.03
2022-11-12T00:57:59.435Z,4.01
2022-11-12T01:00:30.726Z,3.98
2022-11-12T01:03:01.931Z,3.97
2022-11-12T01:05:33.774Z,3.96
2022-11-12T01:08:04.985Z,3.97
2022-11-12T01:10:36.486Z,3.91
2022-11-12T01:13:07.836Z,3.91
2022-11-12T01:15:40.492Z,3.89
2022-11-12T01:18:11.721Z,3.89
2022-11-12T01:20:42.899Z,3.89
2022-11-12T01:23:14.136Z,3.86
2022-11-12T01:25:45.424Z,3.84
2022-11-12T01:28:16.704Z,3.83
2022-11-12T01:30:47.923Z,3.81
2022-11-12T01:33:19.132Z,3.81
2022-11-12T01:35:50.314Z,3.78
2022-11-12T01:38:21.550Z,3.76
2022-11-12T01:40:52.791Z,3.75
2022-11-12T01:43:24.077Z,3.74
2022-11-12T01:45:55.843Z,3.71
2022-11-12T01:48:29.705Z,3.68
2022-11-12T01:51:03.541Z,3.66
2022-11-12T01:53:37.311Z,3.63
2022-11-12T01:56:08.991Z,3.61
2022-11-12T01:58:40.759Z,3.60
2022-11-12T02:01:12.070Z,3.58
2022-11-12T02:03:43.298Z,3.58
2022-11-12T02:06:15.612Z,3.55
2022-11-12T02:08:47.176Z,3.56
2022-11-12T02:11:19.721Z,3.54
2022-11-12T02:13:58.157Z,3.53
2022-11-12T02:16:34.499Z,3.53
2022-11-12T02:19:07.195Z,3.52
2022-11-12T02:21:38.812Z,3.51
2022-11-12T02:24:12.757Z,3.50
2022-11-12T02:26:45.835Z,3.48
2022-11-12T02:29:17.146Z,3.48
2022-11-12T02:31:48.348Z,3.46
2022-11-12T02:34:19.565Z,3.45
2022-11-12T02:36:50.860Z,3.42
2022-11-12T02:39:22.281Z,3.39
2022-11-12T02:41:53.479Z,3.38
2022-11-12T02:44:25.061Z,3.36
2022-11-12T02:46:56.300Z,3.35
2022-11-12T02:49:27.526Z,3.33
2022-11-12T02:51:58.813Z,3.31
2022-11-12T02:54:29.994Z,3.31
2022-11-12T02:57:01.236Z,3.32
2022-11-12T02:59:32.430Z,3.32
2022-11-12T03:02:03.796Z,3.32
2022-11-12T03:04:35.030Z,3.31
2022-11-12T03:07:06.458Z,3.31
2022-11-12T03:09:37.671Z,3.29
2022-11-12T03:12:09.202Z,3.28
2022-11-12T03:14:40.732Z,3.29
2022-11-12T03:17:11.924Z,3.31
2022-11-12T03:19:43.133Z,3.30
2022-11-12T03:22:14.509Z,3.27
2022-11-12T03:24:45.730Z,3.28
2022-11-12T03:27:16.974Z,3.29
2022-11-12T03:29:48.245Z,3.31
2022-11-12T03:32:19.454Z,3.30
2022-11-12T03:34:55.288Z,3.28
2022-11-12T03:37:26.927Z,3.27
2022-11-12T03:39:58.121Z,3.21
2022-11-12T03:42:29.340Z,3.18
2022-11-12T03:45:00.527Z,3.15
2022-11-12T03:47:31.754Z,3.12
2022-11-12T03:50:03.144Z,3.10
2022-11-12T03:52:34.376Z,3.07
2022-11-12T03:55:06.265Z,3.06
2022-11-12T03:57:37.483Z,3.06
2022-11-12T04:00:10.320Z,3.06
2022-11-12T04:02:41.532Z,3.04
2022-11-12T04:05:31.621Z,3.03
2022-11-12T04:08:23.672Z,3.01
2022-11-12T04:10:55.152Z,3.00
2022-11-12T04:13:29.557Z,3.01
2022-11-12T04:16:20.714Z,3.01
2022-11-12T04:19:13.024Z,3.04
2022-11-12T04:21:51.612Z,3.07
2022-11-12T04:24:51.580Z,3.08
2022-11-12T04:27:42.438Z,2.96
2022-11-12T04:30:16.698Z,3.21
2022-11-12T04:32:54.396Z,3.24
2022-11-12T04:35:26.405Z,3.27
2022-11-12T04:37:57.683Z,3.27
2022-11-12T04:40:47.888Z,3.27
2022-11-12T04:43:38.039Z,3.27
2022-11-12T04:46:09.518Z,3.25
2022-11-12T04:48:40.819Z,3.22
2022-11-12T04:51:30.860Z,3.20
2022-11-12T04:54:02.071Z,3.17
2022-11-12T04:56:33.258Z,3.13
2022-11-12T04:59:04.559Z,3.14
2022-11-12T05:01:35.882Z,3.13
2022-11-12T05:04:07.189Z,3.13
2022-11-12T05:06:53.852Z,3.12
2022-11-12T05:09:27.067Z,3.11
2022-11-12T05:11:58.431Z,3.08
2022-11-12T05:14:29.644Z,3.04
2022-11-12T05:17:01.261Z,3.01
2022-11-12T05:19:33.593Z,2.86
2022-11-12T05:22:17.478Z,2.95
2022-11-12T05:24:53.410Z,2.92
2022-11-12T05:27:24.701Z,2.90
2022-11-12T05:29:55.927Z,2.86
2022-11-12T05:32:27.272Z,2.84
2022-11-12T05:34:58.500Z,2.71
2022-11-12T05:37:29.981Z,2.80
2022-11-12T05:40:01.208Z,2.78
2022-11-12T05:42:32.462Z,2.77
2022-11-12T05:45:04.244Z,2.76
2022-11-12T05:47:35.446Z,2.74
2022-11-12T05:50:06.985Z,2.70
2022-11-12T05:52:38.187Z,2.67
2022-11-12T05:55:09.517Z,2.63
2022-11-12T05:57:40.714Z,2.60
2022-11-12T06:00:12.732Z,2.58
2022-11-12T06:02:43.959Z,2.56
2022-11-12T06:05:15.213Z,2.52
2022-11-12T06:07:46.420Z,2.51
2022-11-12T06:10:20.432Z,2.48
2022-11-12T06:12:52.148Z,2.46
2022-11-12T06:15:26.832Z,2.43
2022-11-12T06:17:58.032Z,2.42
2022-11-12T06:20:29.236Z,2.42
2022-11-12T06:23:00.495Z,2.40
2022-11-12T06:25:31.710Z,2.40
2022-11-12T06:28:02.985Z,2.40
2022-11-12T06:30:34.200Z,2.38
2022-11-12T06:33:05.515Z,2.38
2022-11-12T06:35:42.628Z,2.38
2022-11-12T06:38:14.254Z,2.37
2022-11-12T06:40:45.535Z,2.37
2022-11-12T06:43:17.030Z,2.38
2022-11-12T06:45:48.245Z,2.40
2022-11-12T06:48:19.538Z,2.39
2022-11-12T06:50:50.748Z,2.39
2022-11-12T06:53:22.026Z,2.40
2022-11-12T06:55:53.255Z,2.40
2022-11-12T06:58:24.756Z,2.41
2022-11-12T07:00:56.341Z,2.42
2022-11-12T07:03:27.575Z,2.42
2022-11-12T07:06:02.887Z,2.42
2022-11-12T07:08:34.128Z,2.42
2022-11-12T07:11:05.922Z,2.43
2022-11-12T07:13:37.136Z,2.43
2022-11-12T07:16:08.451Z,2.44
2022-11-12T07:18:39.824Z,2.44
2022-11-12T07:21:12.714Z,2.44
2022-11-12T07:23:44.592Z,2.47
2022-11-12T07:26:20.384Z,2.48
2022-11-12T07:28:52.252Z,2.49
2022-11-12T07:31:23.586Z,2.49
2022-11-12T07:33:54.985Z,2.50
2022-11-12T07:36:26.576Z,2.52
2022-11-12T07:38:57.821Z,2.53
2022-11-12T07:41:29.138Z,2.55
2022-11-12T07:44:00.324Z,2.58
2022-11-12T07:46:31.523Z,2.58
2022-11-12T07:49:02.833Z,2.63
2022-11-12T07:51:34.072Z,2.65
2022-11-12T07:54:05.449Z,2.68
2022-11-12T07:56:36.658Z,2.70
2022-11-12T07:59:07.885Z,2.73
2022-11-12T08:01:40.356Z,2.77
2022-11-12T08:04:14.307Z,2.80
2022-11-12T08:06:45.612Z,2.82
2022-11-12T08:09:17.003Z,2.86
2022-11-12T08:11:48.209Z,2.88
2022-11-12T08:14:19.560Z,2.92
2022-11-12T08:16:50.784Z,2.94
2022-11-12T08:19:22.037Z,2.97
2022-11-12T08:21:53.241Z,3.01
2022-11-12T08:24:24.516Z,3.05
2022-11-12T08:26:55.715Z,3.10
2022-11-12T08:29:26.902Z,3.17
2022-11-12T08:31:58.108Z,3.24
2022-11-12T08:34:29.316Z,3.33
2022-11-12T08:37:01.003Z,3.42
2022-11-12T08:39:32.323Z,3.53
2022-11-12T08:42:03.688Z,3.63
2022-11-12T08:44:34.879Z,3.73
2022-11-12T08:47:06.173Z,3.84
2022-11-12T08:49:37.381Z,3.93
2022-11-12T08:52:08.581Z,4.04
2022-11-12T08:54:39.806Z,4.12
2022-11-12T08:57:11.020Z,4.22
2022-11-12T08:59:42.213Z,4.34
2022-11-12T09:02:13.837Z,4.43
2022-11-12T09:04:45.090Z,4.53
2022-11-12T09:07:43.439Z,4.64
2022-11-12T09:10:07.827Z,4.77
2022-11-12T09:12:39.039Z,4.86
2022-11-12T09:15:36.149Z,4.97
2022-11-12T09:18:05.611Z,5.15
2022-11-12T09:20:36.891Z,5.31
2022-11-12T09:23:12.089Z,5.45
2022-11-12T09:25:43.617Z,5.61
2022-11-12T09:28:16.412Z,5.75
2022-11-12T09:30:49.269Z,5.92
2022-11-12T09:33:21.962Z,6.07
2022-11-12T09:35:53.542Z,6.23
2022-11-12T09:38:25.208Z,6.40
2022-11-12T09:41:05.578Z,6.55
2022-11-12T09:43:45.508Z,6.72
2022-11-12T09:46:37.676Z,6.91
2022-11-12T09:49:28.943Z,7.10
2022-11-12T09:52:03.319Z,7.29
2022-11-12T09:54:35.304Z,7.44
2022-11-12T09:57:09.716Z,7.57
2022-11-12T09:59:41.797Z,7.70
2022-11-12T10:02:23.343Z,7.84
2022-11-12T10:04:57.645Z,7.98
2022-11-12T10:07:47.591Z,8.13
2022-11-12T10:10:24.342Z,8.28
2022-11-12T10:13:08.795Z,8.41
2022-11-12T10:16:11.162Z,8.53
2022-11-12T10:19:00.556Z,8.68
2022-11-12T10:21:55.056Z,8.83
2022-11-12T10:24:30.067Z,8.99
2022-11-12T10:27:02.578Z,9.12
2022-11-12T10:29:43.061Z,9.27
2022-11-12T10:32:15.571Z,9.42
2022-11-12T10:34:47.009Z,9.55
2022-11-12T10:37:25.355Z,9.68
2022-11-12T10:39:56.545Z,9.80
2022-11-12T10:42:27.796Z,9.92
2022-11-12T10:45:15.547Z,10.00
2022-11-12T10:47:46.786Z,10.10
2022-11-12T10:50:21.019Z,10.20
2022-11-12T10:52:58.331Z,10.29
2022-11-12T10:55:33.409Z,10.37
2022-11-12T10:58:05.093Z,10.45
2022-11-12T11:00:37.052Z,10.52
2022-11-12T11:03:31.388Z,10.62
2022-11-12T11:06:15.076Z,10.71
2022-11-12T11:08:47.669Z,10.81
2022-11-12T11:11:23.843Z,10.90
2022-11-12T11:13:56.500Z,10.98
2022-11-12T11:16:29.005Z,11.04
2022-11-12T11:19:03.895Z,11.10
2022-11-12T11:21:47.771Z,11.19
2022-11-12T11:24:31.054Z,11.28
2022-11-12T11:27:04.621Z,11.38
2022-11-12T11:29:41.747Z,11.46
2022-11-12T11:32:37.426Z,11.55
2022-11-12T11:35:21.064Z,11.66
2022-11-12T11:37:58.413Z,11.75
2022-11-12T11:40:33.896Z,11.82
2022-11-12T11:43:15.427Z,11.86
2022-11-12T11:45:55.859Z,11.93
2022-11-12T11:48:45.833Z,11.98
2022-11-12T11:51:29.162Z,12.08
2022-11-12T11:54:09.575Z,12.19
2022-11-12T11:56:42.714Z,12.30
2022-11-12T11:59:20.114Z,12.39
2022-11-12T12:01:51.289Z,12.48
2022-11-12T12:04:25.335Z,12.54
2022-11-12T12:07:12.031Z,12.60
2022-11-12T12:10:07.794Z,12.65
2022-11-12T12:13:03.490Z,12.71
2022-11-12T12:15:40.974Z,12.78
2022-11-12T12:18:15.101Z,12.84
2022-11-12T12:21:03.087Z,12.93
2022-11-12T12:23:53.003Z,13.00
2022-11-12T12:26:30.616Z,13.08
2022-11-12T12:29:10.591Z,13.12
2022-11-12T12:31:47.105Z,13.16
2022-11-12T12:34:25.244Z,13.20
2022-11-12T12:37:06.495Z,13.28
2022-11-12T12:39:50.271Z,13.35
2022-11-12T12:42:26.284Z,13.41
2022-11-12T12:45:05.558Z,13.47
2022-11-12T12:47:39.164Z,13.51
2022-11-12T12:50:12.455Z,13.54
2022-11-12T12:53:00.522Z,13.60
2022-11-12T12:55:43.814Z,13.66
2022-11-12T12:58:21.999Z,13.72
2022-11-12T13:00:57.122Z,13.55
2022-11-12T13:03:49.986Z,13.79
2022-11-12T13:06:21.227Z,13.81
2022-11-12T13:09:01.311Z,13.83
2022-11-12T13:12:01.450Z,13.82
2022-11-12T13:14:35.817Z,13.75
2022-11-12T13:17:07.107Z,13.72
2022-11-12T13:19:44.297Z,13.71
2022-11-12T13:22:18.467Z,13.66
2022-11-12T13:25:05.121Z,13.65
2022-11-12T13:27:39.587Z,13.62
2022-11-12T13:30:10.869Z,13.60
2022-11-12T13:32:47.982Z,13.59
2022-11-12T13:35:21.973Z,13.58
2022-11-12T13:38:02.533Z,13.54
2022-11-12T13:40:50.417Z,13.51
2022-11-12T13:43:24.757Z,13.46
2022-11-12T13:46:15.235Z,13.42
2022-11-12T13:48:47.977Z,13.36
2022-11-12T13:51:34.345Z,13.29
2022-11-12T13:54:24.810Z,13.21
2022-11-12T13:56:56.563Z,13.15
2022-11-12T13:59:27.875Z,13.10
2022-11-12T14:02:03.495Z,13.08
2022-11-12T14:04:35.018Z,13.07
2022-11-12T14:07:17.329Z,13.05
2022-11-12T14:09:57.791Z,13.02
2022-11-12T14:12:45.598Z,12.96
2022-11-12T14:15:28.141Z,12.90
2022-11-12T14:17:59.559Z,12.84
2022-11-12T14:20:38.108Z,12.78
2022-11-12T14:23:24.548Z,12.73
2022-11-12T14:25:57.118Z,12.65
2022-11-12T14:28:30.371Z,12.59
2022-11-12T14:31:02.607Z,12.53
2022-11-12T14:33:33.842Z,12.46
2022-11-12T14:36:05.323Z,12.39
2022-11-12T14:38:38.019Z,12.30
2022-11-12T14:41:23.790Z,12.20
2022-11-12T14:44:11.492Z,12.09
2022-11-12T14:46:48.331Z,11.96
2022-11-12T14:49:28.526Z,11.87
2022-11-12T14:52:05.489Z,11.74
2022-11-12T14:54:40.899Z,11.64
2022-11-12T14:57:19.002Z,11.53
2022-11-12T14:59:50.264Z,11.43
2022-11-12T15:02:51.271Z,11.31
2022-11-12T15:05:23.830Z,11.20
2022-11-12T15:07:59.425Z,11.08
2022-11-12T15:10:31.971Z,10.99
2022-11-12T15:13:03.146Z,10.90
2022-11-12T15:15:35.548Z,10.81
2022-11-12T15:18:21.590Z,10.72
2022-11-12T15:21:11.732Z,10.64
2022-11-12T15:23:50.132Z,10.53
2022-11-12T15:26:35.267Z,10.42
2022-11-12T15:29:12.528Z,10.31
2022-11-12T15:31:48.039Z,10.22
2022-11-12T15:34:25.425Z,10.10
2022-11-12T15:36:57.740Z,9.98
2022-11-12T15:39:29.345Z,9.86
2022-11-12T15:42:02.259Z,9.75
2022-11-12T15:44:35.015Z,9.64
2022-11-12T15:47:09.432Z,9.54
2022-11-12T15:49:47.309Z,9.46
2022-11-12T15:52:18.746Z,9.36
2022-11-12T15:54:50.221Z,9.27
2022-11-12T15:57:23.189Z,9.21
2022-11-12T15:59:57.364Z,9.17
2022-11-12T16:02:29.583Z,9.13
2022-11-12T16:05:00.780Z,9.09
2022-11-12T16:07:32.012Z,9.04
2022-11-12T16:10:03.357Z,8.98
2022-11-12T16:12:34.746Z,8.90
2022-11-12T16:15:12.351Z,8.83
2022-11-12T16:17:43.848Z,8.75
2022-11-12T16:20:16.193Z,8.67
2022-11-12T16:22:48.238Z,8.63
2022-11-12T16:25:20.261Z,8.55
2022-11-12T16:27:55.704Z,8.46
2022-11-12T16:30:29.411Z,8.35
2022-11-12T16:33:01.038Z,8.26
2022-11-12T16:35:34.452Z,8.16
2022-11-12T16:38:12.064Z,8.08
2022-11-12T16:40:44.039Z,7.96
2022-11-12T16:43:15.393Z,7.88
2022-11-12T16:45:46.595Z,7.81
2022-11-12T16:48:19.479Z,7.74
2022-11-12T16:50:50.850Z,7.72
2022-11-12T16:53:22.044Z,7.72
2022-11-12T16:55:53.247Z,7.73
2022-11-12T16:58:24.448Z,7.71
2022-11-12T17:00:55.685Z,7.67
2022-11-12T17:03:27.257Z,7.63
2022-11-12T17:05:59.237Z,7.55
2022-11-12T17:08:33.915Z,7.49
2022-11-12T17:11:06.038Z,7.43
2022-11-12T17:13:38.657Z,7.39
2022-11-12T17:16:10.691Z,7.34
2022-11-12T17:18:42.366Z,7.27
2022-11-12T17:21:15.436Z,7.19
2022-11-12T17:23:46.765Z,7.16
2022-11-12T17:26:21.518Z,7.10
2022-11-12T17:29:00.164Z,7.05
2022-11-12T17:31:33.595Z,6.98
2022-11-12T17:34:08.727Z,6.94
2022-11-12T17:36:43.505Z,6.98
2022-11-12T17:39:15.116Z,7.05
2022-11-12T17:41:46.339Z,7.09
2022-11-12T17:44:18.191Z,7.13
2022-11-12T17:46:50.310Z,7.15
2022-11-12T17:49:21.556Z,7.16
2022-11-12T17:51:52.840Z,7.17
2022-11-12T17:54:24.093Z,7.25
2022-11-12T17:56:55.298Z,7.29
2022-11-12T17:59:26.540Z,7.32
2022-11-12T18:01:57.727Z,7.33
2022-11-12T18:04:30.941Z,7.31
2022-11-12T18:07:02.691Z,7.27
2022-11-12T18:09:33.958Z,7.20
2022-11-12T18:12:05.367Z,7.15
2022-11-12T18:14:38.310Z,7.10
2022-11-12T18:17:13.839Z,7.07
2022-11-12T18:19:48.159Z,7.04
2022-11-12T18:22:21.014Z,7.03
2022-11-12T18:24:52.864Z,7.03
2022-11-12T18:27:24.097Z,7.03
2022-11-12T18:29:55.291Z,7.05
2022-11-12T18:32:26.528Z,7.03
2022-11-12T18:34:57.853Z,7.02
2022-11-12T18:37:29.080Z,7.01
2022-11-12T18:40:00.322Z,6.99
2022-11-12T18:42:31.614Z,6.84
2022-11-12T18:45:02.889Z,6.95
2022-11-12T18:47:34.100Z,6.89
2022-11-12T18:50:08.804Z,6.80
2022-11-12T18:52:40.746Z,6.75
2022-11-12T18:55:12.090Z,6.72
2022-11-12T18:57:43.318Z,6.71
2022-11-12T19:00:15.578Z,6.72
2022-11-12T19:02:46.880Z,6.71
2022-11-12T19:05:20.718Z,6.66
2022-11-12T19:07:52.056Z,6.58
2022-11-12T19:10:23.342Z,6.49
2022-11-12T19:12:54.670Z,6.46
2022-11-12T19:15:27.170Z,6.45
2022-11-12T19:17:58.490Z,6.44
2022-11-12T19:20:30.029Z,6.47
2022-11-12T19:23:01.235Z,6.49
2022-11-12T19:25:34.366Z,6.48
2022-11-12T19:28:05.614Z,6.48
2022-11-12T19:30:36.832Z,6.46
2022-11-12T19:33:08.071Z,6.44
2022-11-12T19:35:40.067Z,6.45
2022-11-12T19:38:11.281Z,6.46
2022-11-12T19:40:42.517Z,6.44
2022-11-12T19:43:13.777Z,6.48
2022-11-12T19:45:45.103Z,6.55
2022-11-12T19:48:16.314Z,6.61
2022-11-12T19:50:47.561Z,6.65
2022-11-12T19:53:18.968Z,6.68
2022-11-12T19:55:50.187Z,6.71
2022-11-12T19:58:21.412Z,6.74
2022-11-12T20:00:52.670Z,6.77
2022-11-12T20:03:26.314Z,6.79
2022-11-12T20:06:07.716Z,6.77
2022-11-12T20:08:39.201Z,6.77
2022-11-12T20:11:10.618Z,6.76
2022-11-12T20:13:41.880Z,6.73
2022-11-12T20:16:13.856Z,6.70
2022-11-12T20:18:49.813Z,6.65
2022-11-12T20:21:24.188Z,6.61
2022-11-12T20:23:55.576Z,6.57
2022-11-12T20:26:26.947Z,6.51
2022-11-12T20:28:58.157Z,6.50
2022-11-12T20:31:29.384Z,6.46
2022-11-12T20:34:01.898Z,6.43
2022-11-12T20:36:33.134Z,6.39
2022-11-12T20:39:04.668Z,6.36
2022-11-12T20:41:35.861Z,6.32
2022-11-12T20:44:07.069Z,6.30
2022-11-12T20:46:38.266Z,6.27
2022-11-12T20:49:09.469Z,6.24
2022-11-12T20:51:40.722Z,6.19
2022-11-12T20:54:11.934Z,6.14
2022-11-12T20:56:44.244Z,6.12
2022-11-12T20:59:15.486Z,6.12
2022-11-12T21:01:46.778Z,6.14
2022-11-12T21:04:18.028Z,6.15
2022-11-12T21:06:50.019Z,6.17
2022-11-12T21:09:21.290Z,6.18
2022-11-12T21:11:52.701Z,6.19
2022-11-12T21:14:23.981Z,6.20
2022-11-12T21:16:55.209Z,6.17
2022-11-12T21:19:26.425Z,6.14
2022-11-12T21:21:57.618Z,6.10
2022-11-12T21:24:28.822Z,6.07
2022-11-12T21:27:00.274Z,6.03
2022-11-12T21:29:31.561Z,6.01
2022-11-12T21:32:02.795Z,5.97
2022-11-12T21:34:34.067Z,5.93
2022-11-12T21:37:05.314Z,5.90
2022-11-12T21:39:36.779Z,5.88
2022-11-12T21:42:07.973Z,5.85
2022-11-12T21:44:39.181Z,5.83
2022-11-12T21:47:10.435Z,5.84
2022-11-12T21:49:41.662Z,5.82
2022-11-12T21:52:12.999Z,5.82
2022-11-12T21:54:44.216Z,5.81
2022-11-12T21:57:18.747Z,5.77
2022-11-12T21:59:50.282Z,5.75
2022-11-12T22:02:21.502Z,5.75
2022-11-12T22:04:52.750Z,5.73
2022-11-12T22:07:24.016Z,5.71
2022-11-12T22:09:57.070Z,5.70
2022-11-12T22:12:28.446Z,5.70
2022-11-12T22:14:59.666Z,5.66
2022-11-12T22:17:32.730Z,5.64
2022-11-12T22:20:04.122Z,5.61
2022-11-12T22:22:35.318Z,5.57
2022-11-12T22:25:06.748Z,5.54
2022-11-12T22:27:37.968Z,5.53
2022-11-12T22:30:09.533Z,5.54
2022-11-12T22:32:40.873Z,5.54
2022-11-12T22:35:12.119Z,5.55
2022-11-12T22:37:43.298Z,5.54
2022-11-12T22:40:14.715Z,5.54
2022-11-12T22:42:45.895Z,5.53
2022-11-12T22:45:18.048Z,5.57
2022-11-12T22:47:49.272Z,5.57
2022-11-12T22:50:20.543Z,5.55
2022-11-12T22:52:51.735Z,5.53
2022-11-12T22:55:22.979Z,5.56
2022-11-12T22:57:54.180Z,5.56
2022-11-12T23:00:28.967Z,5.55
2022-11-12T23:03:00.170Z,5.53
2022-11-12T23:05:34.429Z,5.48
2022-11-12T23:08:05.656Z,5.47
2022-11-12T23:10:40.386Z,5.45
2022-11-12T23:13:14.216Z,5.43
2022-11-12T23:15:45.932Z,5.43
2022-11-12T23:18:17.135Z,5.39
2022-11-12T23:20:48.534Z,5.40
2022-11-12T23:23:19.803Z,5.40
2022-11-12T23:25:51.091Z,5.45
2022-11-12T23:28:22.376Z,5.50
2022-11-12T23:30:53.579Z,5.58
2022-11-12T23:33:24.783Z,5.67
2022-11-12T23:36:03.633Z,5.73
2022-11-12T23:38:34.835Z,5.77
2022-11-12T23:41:06.266Z,5.77
2022-11-12T23:43:37.492Z,5.78
2022-11-12T23:46:09.218Z,5.83
2022-11-12T23:48:40.758Z,5.87
2022-11-12T23:51:13.350Z,5.90
2022-11-12T23:53:44.658Z,5.94
2022-11-12T23:56:16.706Z,5.97
2022-11-12T23:58:47.934Z,6.01
